sensor_id;sensor_type;location;lat;lon;timestamp;pressure;altitude;pressure_sealevel;temperature;humidity
74573;BME280;63071;51.526;-0.134;2022-10-29T00:00:42;101455.63;;;26.49;37.96
74573;BME280;63071;51.526;-0.134;2022-10-29T00:03:07;101448.72;;;26.48;37.52
74573;BME280;63071;51.526;-0.134;2022-10-29T00:05:33;101447.19;;;26.47;37.62
74573;BME280;63071;51.526;-0.134;2022-10-29T00:07:59;101439.91;;;26.47;38.16
74573;BME280;63071;51.526;-0.134;2022-10-29T00:10:25;101446.03;;;26.48;38.28
74573;BME280;63071;51.526;-0.134;2022-10-29T00:12:50;101428.06;;;26.48;38.12
74573;BME280;63071;51.526;-0.134;2022-10-29T00:15:15;101443.38;;;26.51;37.77
74573;BME280;63071;51.526;-0.134;2022-10-29T00:17:41;101436.91;;;26.52;37.86
74573;BME280;63071;51.526;-0.134;2022-10-29T00:20:07;101428.06;;;26.52;38.14
74573;BME280;63071;51.526;-0.134;2022-10-29T00:22:33;101420.81;;;26.52;37.38
74573;BME280;63071;51.526;-0.134;2022-10-29T00:24:58;101410.84;;;26.53;37.86
74573;BME280;63071;51.526;-0.134;2022-10-29T00:27:23;101394.00;;;26.52;38.06
74573;BME280;63071;51.526;-0.134;2022-10-29T00:29:49;101382.13;;;26.53;38.18
74573;BME280;63071;51.526;-0.134;2022-10-29T00:32:14;101386.34;;;26.54;37.47
74573;BME280;63071;51.526;-0.134;2022-10-29T00:34:40;101393.63;;;26.50;37.28
74573;BME280;63071;51.526;-0.134;2022-10-29T00:37:05;101386.69;;;26.42;37.90
74573;BME280;63071;51.526;-0.134;2022-10-29T00:39:31;101397.00;;;26.44;37.42
74573;BME280;63071;51.526;-0.134;2022-10-29T00:42:00;101388.56;;;26.42;38.27
74573;BME280;63071;51.526;-0.134;2022-10-29T00:44:32;101399.69;;;26.44;37.76
74573;BME280;63071;51.526;-0.134;2022-10-29T00:47:25;101399.34;;;26.49;37.46
74573;BME280;63071;51.526;-0.134;2022-10-29T00:49:58;101404.34;;;26.50;37.82
74573;BME280;63071;51.526;-0.134;2022-10-29T00:52:29;101405.84;;;26.51;37.63
74573;BME280;63071;51.526;-0.134;2022-10-29T00:55:01;101413.50;;;26.49;37.62
74573;BME280;63071;51.526;-0.134;2022-10-29T00:57:36;101410.47;;;26.51;37.70
74573;BME280;63071;51.526;-0.134;2022-10-29T01:00:03;101401.66;;;26.50;37.51
74573;BME280;63071;51.526;-0.134;2022-10-29T01:02:32;101399.72;;;26.51;38.19
74573;BME280;63071;51.526;-0.134;2022-10-29T01:05:00;101393.97;;;26.45;38.30
74573;BME280;63071;51.526;-0.134;2022-10-29T01:07:27;101390.53;;;26.48;37.64
74573;BME280;63071;51.526;-0.134;2022-10-29T01:09:53;101382.09;;;26.46;37.70
74573;BME280;63071;51.526;-0.134;2022-10-29T01:15:43;101384.03;;;26.49;37.42
74573;BME280;63071;51.526;-0.134;2022-10-29T01:18:35;101395.13;;;26.48;38.43
74573;BME280;63071;51.526;-0.134;2022-10-29T01:30:02;101383.25;;;26.49;38.25
74573;BME280;63071;51.526;-0.134;2022-10-29T01:33:01;101375.97;;;26.49;37.91
74573;BME280;63071;51.526;-0.134;2022-10-29T01:36:03;101373.66;;;26.48;38.03
74573;BME280;63071;51.526;-0.134;2022-10-29T01:38:37;101376.75;;;26.50;38.10
74573;BME280;63071;51.526;-0.134;2022-10-29T01:41:18;101371.38;;;26.46;38.19
74573;BME280;63071;51.526;-0.134;2022-10-29T01:46:24;101365.25;;;26.42;38.44
74573;BME280;63071;51.526;-0.134;2022-10-29T01:48:56;101370.59;;;26.42;37.61
74573;BME280;63071;51.526;-0.134;2022-10-29T01:51:32;101361.00;;;26.41;38.22
74573;BME280;63071;51.526;-0.134;2022-10-29T01:54:01;101354.50;;;26.38;37.70
74573;BME280;63071;51.526;-0.134;2022-10-29T01:56:30;101348.75;;;26.36;37.76
74573;BME280;63071;51.526;-0.134;2022-10-29T01:58:58;101345.72;;;26.45;38.37
74573;BME280;63071;51.526;-0.134;2022-10-29T02:01:59;101337.69;;;26.49;38.38
74573;BME280;63071;51.526;-0.134;2022-10-29T02:10:02;101324.25;;;26.42;37.77
74573;BME280;63071;51.526;-0.134;2022-10-29T02:12:39;101318.91;;;26.45;38.24
74573;BME280;63071;51.526;-0.134;2022-10-29T02:17:59;101311.66;;;26.49;37.99
74573;BME280;63071;51.526;-0.134;2022-10-29T02:20:25;101296.72;;;26.48;37.76
74573;BME280;63071;51.526;-0.134;2022-10-29T02:22:51;101305.91;;;26.47;38.24
74573;BME280;63071;51.526;-0.134;2022-10-29T02:25:17;101281.75;;;26.36;38.03
74573;BME280;63071;51.526;-0.134;2022-10-29T02:27:42;101293.63;;;26.43;38.22
74573;BME280;63071;51.526;-0.134;2022-10-29T02:30:08;101278.31;;;26.39;38.14
74573;BME280;63071;51.526;-0.134;2022-10-29T02:32:33;101294.03;;;26.45;38.36
74573;BME280;63071;51.526;-0.134;2022-10-29T02:35:00;101292.09;;;26.45;38.32
74573;BME280;63071;51.526;-0.134;2022-10-29T02:37:26;101297.47;;;26.45;37.75
74573;BME280;63071;51.526;-0.134;2022-10-29T02:39:52;101277.94;;;26.41;38.38
74573;BME280;63071;51.526;-0.134;2022-10-29T02:42:17;101266.06;;;26.38;37.94
74573;BME280;63071;51.526;-0.134;2022-10-29T02:44:42;101256.88;;;26.36;38.32
74573;BME280;63071;51.526;-0.134;2022-10-29T02:47:08;101252.28;;;26.40;38.25
74573;BME280;63071;51.526;-0.134;2022-10-29T02:49:33;101248.84;;;26.43;38.39
74573;BME280;63071;51.526;-0.134;2022-10-29T02:51:59;101247.28;;;26.35;37.77
74573;BME280;63071;51.526;-0.134;2022-10-29T02:54:24;101248.84;;;26.36;38.67
74573;BME280;63071;51.526;-0.134;2022-10-29T02:56:50;101241.94;;;26.35;38.15
74573;BME280;63071;51.526;-0.134;2022-10-29T02:59:15;101217.78;;;26.31;38.72
74573;BME280;63071;51.526;-0.134;2022-10-29T03:01:40;101218.59;;;26.32;38.15
74573;BME280;63071;51.526;-0.134;2022-10-29T03:04:06;101218.97;;;26.30;38.98
74573;BME280;63071;51.526;-0.134;2022-10-29T03:06:31;101211.69;;;26.34;38.28
74573;BME280;63071;51.526;-0.134;2022-10-29T03:08:57;101209.03;;;26.38;38.26
74573;BME280;63071;51.526;-0.134;2022-10-29T03:11:22;101187.56;;;26.31;38.76
74573;BME280;63071;51.526;-0.134;2022-10-29T03:13:48;101199.81;;;26.39;38.75
74573;BME280;63071;51.526;-0.134;2022-10-29T03:16:13;101185.66;;;26.38;38.46
74573;BME280;63071;51.526;-0.134;2022-10-29T03:18:39;101182.22;;;26.38;38.45
74573;BME280;63071;51.526;-0.134;2022-10-29T03:21:04;101193.72;;;26.42;38.58
74573;BME280;63071;51.526;-0.134;2022-10-29T03:23:29;101183.00;;;26.42;37.93
74573;BME280;63071;51.526;-0.134;2022-10-29T03:25:55;101176.84;;;26.42;38.82
74573;BME280;63071;51.526;-0.134;2022-10-29T03:28:22;101181.44;;;26.41;38.31
74573;BME280;63071;51.526;-0.134;2022-10-29T03:30:48;101181.44;;;26.41;38.75
74573;BME280;63071;51.526;-0.134;2022-10-29T03:33:14;101183.00;;;26.42;38.19
74573;BME280;63071;51.526;-0.134;2022-10-29T03:35:39;101191.78;;;26.43;38.52
74573;BME280;63071;51.526;-0.134;2022-10-29T03:38:05;101185.28;;;26.44;38.04
74573;BME280;63071;51.526;-0.134;2022-10-29T03:40:31;101167.66;;;26.43;38.58
74573;BME280;63071;51.526;-0.134;2022-10-29T03:42:56;101154.66;;;26.45;38.03
74573;BME280;63071;51.526;-0.134;2022-10-29T03:45:22;101156.94;;;26.43;38.47
74573;BME280;63071;51.526;-0.134;2022-10-29T03:47:47;101139.34;;;26.45;38.75
74573;BME280;63071;51.526;-0.134;2022-10-29T03:50:13;101125.16;;;26.45;38.39
74573;BME280;63071;51.526;-0.134;2022-10-29T03:52:38;101129.78;;;26.44;38.98
74573;BME280;63071;51.526;-0.134;2022-10-29T03:55:04;101114.81;;;26.43;38.83
74573;BME280;63071;51.526;-0.134;2022-10-29T03:57:31;101118.66;;;26.42;38.91
74573;BME280;63071;51.526;-0.134;2022-10-29T03:59:57;101119.44;;;26.43;38.97
74573;BME280;63071;51.526;-0.134;2022-10-29T04:02:25;101118.66;;;26.42;38.40
74573;BME280;63071;51.526;-0.134;2022-10-29T04:04:51;101111.75;;;26.41;38.33
74573;BME280;63071;51.526;-0.134;2022-10-29T04:07:16;101107.94;;;26.38;38.64
74573;BME280;63071;51.526;-0.134;2022-10-29T04:09:42;101110.63;;;26.42;38.77
74573;BME280;63071;51.526;-0.134;2022-10-29T04:12:07;101116.38;;;26.41;38.78
74573;BME280;63071;51.526;-0.134;2022-10-29T04:14:33;101118.28;;;26.40;38.46
74573;BME280;63071;51.526;-0.134;2022-10-29T04:16:58;101109.06;;;26.37;38.64
74573;BME280;63071;51.526;-0.134;2022-10-29T04:19:24;101114.81;;;26.39;38.31
74573;BME280;63071;51.526;-0.134;2022-10-29T04:21:50;101105.66;;;26.41;38.67
74573;BME280;63071;51.526;-0.134;2022-10-29T04:24:15;101097.97;;;26.39;38.94
74573;BME280;63071;51.526;-0.134;2022-10-29T04:26:42;101100.66;;;26.39;38.56
74573;BME280;63071;51.526;-0.134;2022-10-29T04:29:08;101098.34;;;26.37;39.03
74573;BME280;63071;51.526;-0.134;2022-10-29T04:31:34;101102.59;;;26.38;38.47
74573;BME280;63071;51.526;-0.134;2022-10-29T04:33:59;101100.28;;;26.37;38.75
74573;BME280;63071;51.526;-0.134;2022-10-29T04:36:25;101096.84;;;26.36;38.57
74573;BME280;63071;51.526;-0.134;2022-10-29T04:38:50;101101.44;;;26.36;38.89
74573;BME280;63071;51.526;-0.134;2022-10-29T04:41:16;101089.56;;;26.33;38.57
74573;BME280;63071;51.526;-0.134;2022-10-29T04:43:41;101093.41;;;26.36;38.61
74573;BME280;63071;51.526;-0.134;2022-10-29T04:46:08;101083.81;;;26.35;38.68
74573;BME280;63071;51.526;-0.134;2022-10-29T04:48:34;101080.00;;;26.36;38.50
74573;BME280;63071;51.526;-0.134;2022-10-29T04:51:00;101070.81;;;26.37;38.54
74573;BME280;63071;51.526;-0.134;2022-10-29T04:53:25;101050.53;;;26.36;38.81
74573;BME280;63071;51.526;-0.134;2022-10-29T04:55:50;101048.97;;;26.35;39.01
74573;BME280;63071;51.526;-0.134;2022-10-29T04:58:18;101049.34;;;26.37;38.72
74573;BME280;63071;51.526;-0.134;2022-10-29T05:00:45;101054.72;;;26.37;38.56
74573;BME280;63071;51.526;-0.134;2022-10-29T05:03:10;101049.75;;;26.35;39.17
74573;BME280;63071;51.526;-0.134;2022-10-29T05:05:38;101050.13;;;26.37;38.84
74573;BME280;63071;51.526;-0.134;2022-10-29T05:08:05;101047.44;;;26.37;38.97
74573;BME280;63071;51.526;-0.134;2022-10-29T05:10:33;101042.88;;;26.38;38.76
74573;BME280;63071;51.526;-0.134;2022-10-29T05:13:09;101032.91;;;26.35;39.20
74573;BME280;63071;51.526;-0.134;2022-10-29T05:15:36;101030.22;;;26.35;38.96
74573;BME280;63071;51.526;-0.134;2022-10-29T05:18:02;101024.84;;;26.31;39.12
74573;BME280;63071;51.526;-0.134;2022-10-29T05:20:28;101026.78;;;26.34;38.95
74573;BME280;63071;51.526;-0.134;2022-10-29T05:23:05;101006.88;;;26.35;39.45
74573;BME280;63071;51.526;-0.134;2022-10-29T05:25:34;100985.84;;;26.34;38.97
74573;BME280;63071;51.526;-0.134;2022-10-29T05:28:12;100990.81;;;26.32;39.39
74573;BME280;63071;51.526;-0.134;2022-10-29T05:30:39;100977.41;;;26.28;38.89
74573;BME280;63071;51.526;-0.134;2022-10-29T05:33:10;100974.34;;;26.30;38.99
74573;BME280;63071;51.526;-0.134;2022-10-29T05:35:36;100972.81;;;26.25;39.08
74573;BME280;63071;51.526;-0.134;2022-10-29T05:38:03;100972.06;;;26.28;38.85
74573;BME280;63071;51.526;-0.134;2022-10-29T05:40:29;100972.81;;;26.29;39.08
74573;BME280;63071;51.526;-0.134;2022-10-29T05:42:54;100975.50;;;26.29;39.09
74573;BME280;63071;51.526;-0.134;2022-10-29T05:45:20;100973.19;;;26.31;39.45
74573;BME280;63071;51.526;-0.134;2022-10-29T05:47:45;100960.97;;;26.30;39.31
74573;BME280;63071;51.526;-0.134;2022-10-29T05:50:11;100969.75;;;26.30;39.00
74573;BME280;63071;51.526;-0.134;2022-10-29T05:52:37;100968.63;;;26.28;38.82
74573;BME280;63071;51.526;-0.134;2022-10-29T05:55:04;100974.72;;;26.28;39.13
74573;BME280;63071;51.526;-0.134;2022-10-29T05:57:29;100974.34;;;26.26;39.00
74573;BME280;63071;51.526;-0.134;2022-10-29T05:59:55;100984.28;;;26.29;38.95
74573;BME280;63071;51.526;-0.134;2022-10-29T06:02:20;100987.75;;;26.26;39.40
74573;BME280;63071;51.526;-0.134;2022-10-29T06:04:46;100972.44;;;26.27;39.22
74573;BME280;63071;51.526;-0.134;2022-10-29T06:07:11;100976.66;;;26.28;39.61
74573;BME280;63071;51.526;-0.134;2022-10-29T06:09:37;100963.25;;;26.24;39.02
74573;BME280;63071;51.526;-0.134;2022-10-29T06:12:02;100954.84;;;26.26;39.10
74573;BME280;63071;51.526;-0.134;2022-10-29T06:14:28;100946.03;;;26.22;39.18
74573;BME280;63071;51.526;-0.134;2022-10-29T06:16:53;100952.91;;;26.26;39.33
74573;BME280;63071;51.526;-0.134;2022-10-29T06:19:19;100944.50;;;26.28;39.16
74573;BME280;63071;51.526;-0.134;2022-10-29T06:21:44;100946.00;;;26.29;38.98
74573;BME280;63071;51.526;-0.134;2022-10-29T06:24:10;100943.34;;;26.29;38.72
74573;BME280;63071;51.526;-0.134;2022-10-29T06:26:36;100939.53;;;26.30;38.86
74573;BME280;63071;51.526;-0.134;2022-10-29T06:29:02;100933.41;;;26.22;38.97
74573;BME280;63071;51.526;-0.134;2022-10-29T06:31:28;100928.44;;;26.28;39.31
74573;BME280;63071;51.526;-0.134;2022-10-29T06:33:54;100929.56;;;26.30;39.45
74573;BME280;63071;51.526;-0.134;2022-10-29T06:36:20;100929.94;;;26.29;39.61
74573;BME280;63071;51.526;-0.134;2022-10-29T06:38:45;100940.66;;;26.29;39.15
74573;BME280;63071;51.526;-0.134;2022-10-29T06:41:11;100943.34;;;26.29;39.64
74573;BME280;63071;51.526;-0.134;2022-10-29T06:43:37;100938.34;;;26.24;39.28
74573;BME280;63071;51.526;-0.134;2022-10-29T06:46:02;100943.34;;;26.25;39.44
74573;BME280;63071;51.526;-0.134;2022-10-29T06:48:28;100940.66;;;26.25;39.08
74573;BME280;63071;51.526;-0.134;2022-10-29T06:50:53;100939.91;;;26.25;38.78
74573;BME280;63071;51.526;-0.134;2022-10-29T06:53:19;100937.97;;;26.22;39.84
74573;BME280;63071;51.526;-0.134;2022-10-29T06:55:44;100944.50;;;26.24;38.97
74573;BME280;63071;51.526;-0.134;2022-10-29T06:58:15;100945.63;;;26.23;39.16
74573;BME280;63071;51.526;-0.134;2022-10-29T07:00:42;100940.66;;;26.29;39.02
74573;BME280;63071;51.526;-0.134;2022-10-29T07:03:13;100947.94;;;26.28;39.49
74573;BME280;63071;51.526;-0.134;2022-10-29T07:05:38;100939.16;;;26.28;39.00
74573;BME280;63071;51.526;-0.134;2022-10-29T07:08:04;100936.84;;;26.26;39.75
74573;BME280;63071;51.526;-0.134;2022-10-29T07:10:31;100937.97;;;26.25;39.72
74573;BME280;63071;51.526;-0.134;2022-10-29T07:12:57;100932.63;;;26.25;39.11
74573;BME280;63071;51.526;-0.134;2022-10-29T07:15:23;100920.38;;;26.28;39.24
74573;BME280;63071;51.526;-0.134;2022-10-29T07:18:06;100921.16;;;26.28;39.64
74573;BME280;63071;51.526;-0.134;2022-10-29T07:20:35;100910.06;;;26.26;39.56
74573;BME280;63071;51.526;-0.134;2022-10-29T07:23:01;100901.25;;;26.26;39.17
74573;BME280;63071;51.526;-0.134;2022-10-29T07:25:28;100907.00;;;26.28;39.40
74573;BME280;63071;51.526;-0.134;2022-10-29T07:27:54;100903.53;;;26.31;39.60
74573;BME280;63071;51.526;-0.134;2022-10-29T07:30:20;100893.97;;;26.26;39.50
74573;BME280;63071;51.526;-0.134;2022-10-29T07:32:45;100890.50;;;26.29;39.70
74573;BME280;63071;51.526;-0.134;2022-10-29T07:35:11;100890.50;;;26.29;39.18
74573;BME280;63071;51.526;-0.134;2022-10-29T07:37:37;100903.16;;;26.29;39.68
74573;BME280;63071;51.526;-0.134;2022-10-29T07:40:03;100910.44;;;26.28;40.00
74573;BME280;63071;51.526;-0.134;2022-10-29T07:42:29;100921.53;;;26.27;39.62
74573;BME280;63071;51.526;-0.134;2022-10-29T07:44:54;100911.97;;;26.26;39.46
74573;BME280;63071;51.526;-0.134;2022-10-29T07:47:20;100923.81;;;26.25;39.83
74573;BME280;63071;51.526;-0.134;2022-10-29T07:49:45;100937.22;;;26.32;39.19
74573;BME280;63071;51.526;-0.134;2022-10-29T07:52:11;100915.78;;;26.32;39.29
74573;BME280;63071;51.526;-0.134;2022-10-29T07:54:36;100925.72;;;26.35;39.36
74573;BME280;63071;51.526;-0.134;2022-10-29T07:57:01;100912.34;;;26.28;39.39
74573;BME280;63071;51.526;-0.134;2022-10-29T07:59:27;100912.31;;;26.35;39.41
74573;BME280;63071;51.526;-0.134;2022-10-29T08:01:52;100936.81;;;26.37;39.69
74573;BME280;63071;51.526;-0.134;2022-10-29T08:04:18;100944.09;;;26.36;39.76
74573;BME280;63071;51.526;-0.134;2022-10-29T08:06:43;100939.50;;;26.37;39.33
74573;BME280;63071;51.526;-0.134;2022-10-29T08:09:10;100931.84;;;26.32;39.06
74573;BME280;63071;51.526;-0.134;2022-10-29T08:11:37;100941.03;;;26.38;38.94
74573;BME280;63071;51.526;-0.134;2022-10-29T08:14:02;100938.34;;;26.38;39.92
74573;BME280;63071;51.526;-0.134;2022-10-29T08:16:28;100931.44;;;26.37;39.56
74573;BME280;63071;51.526;-0.134;2022-10-29T08:18:53;100929.16;;;26.39;39.28
74573;BME280;63071;51.526;-0.134;2022-10-29T08:21:19;100924.94;;;26.38;39.21
74573;BME280;63071;51.526;-0.134;2022-10-29T08:23:45;100937.19;;;26.39;39.01
74573;BME280;63071;51.526;-0.134;2022-10-29T08:26:11;100933.75;;;26.38;38.97
74573;BME280;63071;51.526;-0.134;2022-10-29T08:28:36;100926.09;;;26.37;39.97
74573;BME280;63071;51.526;-0.134;2022-10-29T08:31:02;100942.16;;;26.37;39.40
74573;BME280;63071;51.526;-0.134;2022-10-29T08:33:27;100944.47;;;26.38;39.19
74573;BME280;63071;51.526;-0.134;2022-10-29T08:35:53;100934.13;;;26.41;39.21
74573;BME280;63071;51.526;-0.134;2022-10-29T08:38:20;100918.09;;;26.30;39.46
74573;BME280;63071;51.526;-0.134;2022-10-29T08:40:55;100932.59;;;26.39;39.79
74573;BME280;63071;51.526;-0.134;2022-10-29T08:43:59;100926.09;;;26.37;39.64
74573;BME280;63071;51.526;-0.134;2022-10-29T08:49:08;100919.59;;;26.34;39.75
74573;BME280;63071;51.526;-0.134;2022-10-29T08:51:39;100916.50;;;26.39;39.49
74573;BME280;63071;51.526;-0.134;2022-10-29T08:54:12;100928.38;;;26.38;39.66
74573;BME280;63071;51.526;-0.134;2022-10-29T08:56:44;100925.34;;;26.40;39.38
74573;BME280;63071;51.526;-0.134;2022-10-29T08:59:18;100932.59;;;26.39;39.17
74573;BME280;63071;51.526;-0.134;2022-10-29T09:01:45;100919.19;;;26.39;39.09
74573;BME280;63071;51.526;-0.134;2022-10-29T09:04:26;100922.25;;;26.42;39.11
74573;BME280;63071;51.526;-0.134;2022-10-29T09:23:45;100902.72;;;26.41;39.43
74573;BME280;63071;51.526;-0.134;2022-10-29T09:26:23;100918.41;;;26.43;39.41
74573;BME280;63071;51.526;-0.134;2022-10-29T09:32:10;100907.69;;;26.43;39.86
74573;BME280;63071;51.526;-0.134;2022-10-29T09:34:45;100903.09;;;26.43;39.32
74573;BME280;63071;51.526;-0.134;2022-10-29T09:37:14;100884.75;;;26.38;39.79
74573;BME280;63071;51.526;-0.134;2022-10-29T09:39:43;100896.22;;;26.42;39.79
74573;BME280;63071;51.526;-0.134;2022-10-29T09:42:18;100890.50;;;26.40;39.89
74573;BME280;63071;51.526;-0.134;2022-10-29T09:44:56;100911.53;;;26.42;39.92
74573;BME280;63071;51.526;-0.134;2022-10-29T09:50:25;100927.59;;;26.45;39.92
74573;BME280;63071;51.526;-0.134;2022-10-29T09:52:54;100913.44;;;26.41;39.58
74573;BME280;63071;51.526;-0.134;2022-10-29T09:55:26;100916.50;;;26.47;39.60
74573;BME280;63071;51.526;-0.134;2022-10-29T09:57:55;100929.50;;;26.48;39.96
74573;BME280;63071;51.526;-0.134;2022-10-29T10:00:25;100921.09;;;26.46;39.79
74573;BME280;63071;51.526;-0.134;2022-10-29T10:08:22;100931.03;;;26.53;39.72
74573;BME280;63071;51.526;-0.134;2022-10-29T10:13:26;100921.06;;;26.53;39.65
74573;BME280;63071;51.526;-0.134;2022-10-29T10:15:59;100914.16;;;26.56;39.96
74573;BME280;63071;51.526;-0.134;2022-10-29T10:18:37;100919.16;;;26.57;39.99
74573;BME280;63071;51.526;-0.134;2022-10-29T10:21:31;100921.47;;;26.59;40.05
74573;BME280;63071;51.526;-0.134;2022-10-29T10:23:58;100918.75;;;26.55;39.76
74573;BME280;63071;51.526;-0.134;2022-10-29T10:29:11;100919.91;;;26.62;39.82
74573;BME280;63071;51.526;-0.134;2022-10-29T10:31:38;100928.69;;;26.62;39.97
74573;BME280;63071;51.526;-0.134;2022-10-29T10:34:12;100924.13;;;26.63;40.01
74573;BME280;63071;51.526;-0.134;2022-10-29T10:36:42;100924.88;;;26.60;39.41
74573;BME280;63071;51.526;-0.134;2022-10-29T10:39:38;100921.84;;;26.57;40.15
74573;BME280;63071;51.526;-0.134;2022-10-29T10:42:13;100922.59;;;26.58;40.22
74573;BME280;63071;51.526;-0.134;2022-10-29T10:45:34;100920.28;;;26.56;39.54
74573;BME280;63071;51.526;-0.134;2022-10-29T10:47:35;100918.00;;;26.51;40.35
74573;BME280;63071;51.526;-0.134;2022-10-29T10:52:52;100906.13;;;26.52;40.46
74573;BME280;63071;51.526;-0.134;2022-10-29T10:55:30;100926.78;;;26.55;40.11
74573;BME280;63071;51.526;-0.134;2022-10-29T10:58:17;100927.94;;;26.58;39.91
74573;BME280;63071;51.526;-0.134;2022-10-29T11:00:52;100921.81;;;26.54;40.57
74573;BME280;63071;51.526;-0.134;2022-10-29T11:03:26;100920.31;;;26.53;40.19
74573;BME280;63071;51.526;-0.134;2022-10-29T11:06:07;100922.19;;;26.56;40.71
74573;BME280;63071;51.526;-0.134;2022-10-29T11:11:16;100930.22;;;26.56;40.56
74573;BME280;63071;51.526;-0.134;2022-10-29T11:13:44;100924.13;;;26.55;40.41
74573;BME280;63071;51.526;-0.134;2022-10-29T11:16:24;100918.00;;;26.55;40.35
74573;BME280;63071;51.526;-0.134;2022-10-29T11:21:34;100918.00;;;26.55;40.35
74573;BME280;63071;51.526;-0.134;2022-10-29T11:24:34;100915.69;;;26.57;41.08
74573;BME280;63071;51.526;-0.134;2022-10-29T11:27:14;100899.59;;;26.57;41.10
74573;BME280;63071;51.526;-0.134;2022-10-29T11:32:37;100898.06;;;26.56;40.49
74573;BME280;63071;51.526;-0.134;2022-10-29T11:35:12;100892.34;;;26.57;40.35
74573;BME280;63071;51.526;-0.134;2022-10-29T11:38:03;100871.25;;;26.56;41.19
74573;BME280;63071;51.526;-0.134;2022-10-29T11:40:42;100871.66;;;26.58;41.01
74573;BME280;63071;51.526;-0.134;2022-10-29T11:43:14;100862.47;;;26.63;40.37
74573;BME280;63071;51.526;-0.134;2022-10-29T11:48:50;100865.91;;;26.63;40.44
74573;BME280;63071;51.526;-0.134;2022-10-29T11:56:57;100856.69;;;26.64;40.82
74573;BME280;63071;51.526;-0.134;2022-10-29T11:59:41;100847.13;;;26.63;41.34
74573;BME280;63071;51.526;-0.134;2022-10-29T12:05:24;100844.03;;;26.68;41.10
74573;BME280;63071;51.526;-0.134;2022-10-29T12:08:19;100848.63;;;26.75;41.18
74573;BME280;63071;51.526;-0.134;2022-10-29T12:16:45;100845.53;;;26.76;40.94
74573;BME280;63071;51.526;-0.134;2022-10-29T12:19:36;100837.09;;;26.78;40.47
74573;BME280;63071;51.526;-0.134;2022-10-29T12:27:27;100833.66;;;26.77;40.51
74573;BME280;63071;51.526;-0.134;2022-10-29T12:30:02;100831.34;;;26.80;40.59
74573;BME280;63071;51.526;-0.134;2022-10-29T12:35:28;100828.28;;;26.81;40.91
74573;BME280;63071;51.526;-0.134;2022-10-29T12:41:05;100822.09;;;26.84;40.93
74573;BME280;63071;51.526;-0.134;2022-10-29T12:43:35;100812.16;;;26.85;40.56
74573;BME280;63071;51.526;-0.134;2022-10-29T12:46:37;100813.69;;;26.82;41.20
74573;BME280;63071;51.526;-0.134;2022-10-29T12:49:18;100808.75;;;26.81;40.66
74573;BME280;63071;51.526;-0.134;2022-10-29T12:51:53;100808.34;;;26.82;40.89
74573;BME280;63071;51.526;-0.134;2022-10-29T12:54:37;100797.19;;;26.87;41.19
74573;BME280;63071;51.526;-0.134;2022-10-29T12:57:26;100799.50;;;26.89;40.98
74573;BME280;63071;51.526;-0.134;2022-10-29T12:59:53;100802.94;;;26.89;40.98
74573;BME280;63071;51.526;-0.134;2022-10-29T13:07:30;100788.03;;;26.85;41.19
74573;BME280;63071;51.526;-0.134;2022-10-29T13:15:21;100781.41;;;26.96;41.39
74573;BME280;63071;51.526;-0.134;2022-10-29T13:17:50;100794.81;;;27.00;41.12
74573;BME280;63071;51.526;-0.134;2022-10-29T13:20:25;100794.44;;;26.98;41.35
74573;BME280;63071;51.526;-0.134;2022-10-29T13:22:57;100794.41;;;27.02;40.84
74573;BME280;63071;51.526;-0.134;2022-10-29T13:27:57;100790.88;;;27.12;40.70
74573;BME280;63071;51.526;-0.134;2022-10-29T13:30:26;100787.81;;;27.13;40.77
74573;BME280;63071;51.526;-0.134;2022-10-29T13:32:55;100776.28;;;27.13;40.87
74573;BME280;63071;51.526;-0.134;2022-10-29T13:37:49;100778.97;;;27.13;41.26
74573;BME280;63071;51.526;-0.134;2022-10-29T13:42:59;100778.56;;;27.18;41.23
74573;BME280;63071;51.526;-0.134;2022-10-29T13:45:25;100775.50;;;27.16;41.40
74573;BME280;63071;51.526;-0.134;2022-10-29T13:48:00;100787.78;;;27.17;40.83
74573;BME280;63071;51.526;-0.134;2022-10-29T13:50:28;100778.19;;;27.16;41.16
74573;BME280;63071;51.526;-0.134;2022-10-29T13:52:58;100775.16;;;27.14;41.28
74573;BME280;63071;51.526;-0.134;2022-10-29T13:55:26;100783.94;;;27.18;41.27
74573;BME280;63071;51.526;-0.134;2022-10-29T13:58:12;100781.25;;;27.18;40.91
74573;BME280;63071;51.526;-0.134;2022-10-29T14:00:43;100783.56;;;27.16;41.29
74573;BME280;63071;51.526;-0.134;2022-10-29T14:05:59;100782.00;;;27.18;41.52
74573;BME280;63071;51.526;-0.134;2022-10-29T14:08:49;100763.19;;;27.22;41.39
74573;BME280;63071;51.526;-0.134;2022-10-29T14:11:30;100781.22;;;27.22;41.31
74573;BME280;63071;51.526;-0.134;2022-10-29T14:14:03;100769.75;;;27.21;41.57
74573;BME280;63071;51.526;-0.134;2022-10-29T14:16:31;100783.94;;;27.18;41.03
74573;BME280;63071;51.526;-0.134;2022-10-29T14:18:58;100774.75;;;27.15;41.14
74573;BME280;63071;51.526;-0.134;2022-10-29T14:21:38;100778.59;;;27.14;41.26
74573;BME280;63071;51.526;-0.134;2022-10-29T14:24:09;100771.31;;;27.15;41.50
74573;BME280;63071;51.526;-0.134;2022-10-29T14:26:37;100766.31;;;27.17;41.20
74573;BME280;63071;51.526;-0.134;2022-10-29T14:29:22;100768.19;;;27.24;41.14
74573;BME280;63071;51.526;-0.134;2022-10-29T14:32:06;100771.25;;;27.26;41.54
74573;BME280;63071;51.526;-0.134;2022-10-29T14:34:35;100771.22;;;27.29;40.93
74573;BME280;63071;51.526;-0.134;2022-10-29T14:39:44;100777.00;;;27.24;40.92
74573;BME280;63071;51.526;-0.134;2022-10-29T14:42:17;100775.06;;;27.28;41.21
74573;BME280;63071;51.526;-0.134;2022-10-29T14:44:53;100779.66;;;27.28;41.43
74573;BME280;63071;51.526;-0.134;2022-10-29T14:49:56;100763.53;;;27.31;41.15
74573;BME280;63071;51.526;-0.134;2022-10-29T14:52:36;100770.03;;;27.30;41.52
74573;BME280;63071;51.526;-0.134;2022-10-29T14:55:29;100774.66;;;27.30;41.28
74573;BME280;63071;51.526;-0.134;2022-10-29T14:58:00;100791.53;;;27.27;41.10
74573;BME280;63071;51.526;-0.134;2022-10-29T15:00:29;100781.97;;;27.22;41.44